Terminal Aerodrome Forecast
Issued by NWS

Home | Current Version | Previous Version | Graphics & Text | Print | Product List | Glossary Off
Versions: 1 2 3 4 5 6 7 8 9 10 11 12 13 14 15 16 17 18 19

000
FTUS43 KBIS 242328
TAFJMS
TAF
KJMS 242328Z 2500/2524 29016G22KT P6SM FEW070
     FM250300 29008KT P6SM SCT200
     FM251300 31013G21KT P6SM BKN020
     FM251800 31013G20KT P6SM SCT040=

USA.gov is the U.S. government's official web portal to all federal, state and local government web resources and services.